createdAt,value
2022-11-02T00:04:49.442Z,13.70
2022-11-02T00:09:52.137Z,13.30
2022-11-02T00:14:54.835Z,14.40
2022-11-02T00:19:57.627Z,13.17
2022-11-02T00:25:04.290Z,13.37
2022-11-02T00:30:07.608Z,14.03
2022-11-02T05:31:41.774Z,17.27
2022-11-02T05:36:44.556Z,18.93
2022-11-02T05:41:47.210Z,20.03
2022-11-02T05:46:49.909Z,21.17
2022-11-02T05:51:52.633Z,20.20
2022-11-02T05:56:55.376Z,19.73
2022-11-02T06:01:58.073Z,19.17
2022-11-02T06:07:00.843Z,19.23
2022-11-02T06:12:03.617Z,18.23
2022-11-02T06:17:06.295Z,14.63
2022-11-02T06:22:09.099Z,14.60
2022-11-02T06:27:11.815Z,16.07
2022-11-02T06:32:14.505Z,15.70
2022-11-02T06:37:17.186Z,14.73
2022-11-02T06:42:19.869Z,18.17
2022-11-02T06:47:22.551Z,21.70
2022-11-02T06:52:25.657Z,17.30
2022-11-02T06:57:28.360Z,16.70
2022-11-02T07:02:31.400Z,17.20
2022-11-02T07:07:34.126Z,17.37
2022-11-02T07:12:37.214Z,17.20
2022-11-02T07:17:40.894Z,17.67
2022-11-02T07:22:51.656Z,17.50
2022-11-02T07:27:54.829Z,18.30
2022-11-02T07:32:57.827Z,19.83
2022-11-02T07:38:02.274Z,18.97
2022-11-02T07:43:05.408Z,18.33
2022-11-02T07:48:08.637Z,19.40
2022-11-02T07:53:11.378Z,36.53
2022-11-02T07:58:14.166Z,22.97
2022-11-02T08:03:17.058Z,20.17
2022-11-02T08:08:22.779Z,18.60
2022-11-02T08:13:32.795Z,17.20
2022-11-02T08:18:35.820Z,17.50
2022-11-02T08:23:38.800Z,17.43
2022-11-02T08:28:41.819Z,17.80
2022-11-02T08:33:45.270Z,16.90
2022-11-02T08:38:48.102Z,15.90
2022-11-02T08:43:50.820Z,15.67
2022-11-02T08:48:53.596Z,16.57
2022-11-02T08:53:56.531Z,16.43
2022-11-02T08:58:59.331Z,15.93
2022-11-02T09:04:02.094Z,14.60
2022-11-02T09:09:04.974Z,14.50
2022-11-02T09:14:08.001Z,14.07
2022-11-02T09:19:10.905Z,13.60
2022-11-02T09:24:13.804Z,13.20
2022-11-02T09:29:16.600Z,13.40
2022-11-02T09:34:19.479Z,12.70
2022-11-02T09:39:24.891Z,11.97
2022-11-02T09:44:43.346Z,12.77
2022-11-02T09:49:46.448Z,12.90
2022-11-02T09:54:52.295Z,13.23
2022-11-02T09:59:55.752Z,13.93
2022-11-02T10:05:26.409Z,11.20
2022-11-02T10:10:34.149Z,12.43
2022-11-02T10:15:38.427Z,11.10
2022-11-02T10:20:45.425Z,10.97
2022-11-02T10:25:50.878Z,9.67
2022-11-02T10:30:54.473Z,9.60
2022-11-02T10:36:23.248Z,9.60
2022-11-02T10:41:39.160Z,8.17
2022-11-02T10:47:09.292Z,8.27
2022-11-02T10:52:15.190Z,8.20
2022-11-02T10:57:24.274Z,8.20
2022-11-02T11:02:29.281Z,7.97
2022-11-02T11:07:32.125Z,7.27
2022-11-02T11:12:40.658Z,6.17
2022-11-02T11:23:24.135Z,6.13
2022-11-02T11:28:31.465Z,5.00
2022-11-02T11:33:44.871Z,4.67
2022-11-02T11:38:49.218Z,5.33
2022-11-02T11:43:52.905Z,5.40
2022-11-02T11:48:59.781Z,4.77
2022-11-02T11:54:20.234Z,3.77
2022-11-02T11:59:26.934Z,4.90
2022-11-02T12:04:34.902Z,4.77
2022-11-02T12:10:05.648Z,5.03
2022-11-02T12:15:27.763Z,4.33
2022-11-02T12:20:38.558Z,5.10
2022-11-02T12:26:01.618Z,5.00
2022-11-02T12:31:37.777Z,5.40
2022-11-02T12:37:09.846Z,4.20
2022-11-02T12:42:21.202Z,3.63
2022-11-02T12:47:42.289Z,3.30
2022-11-02T12:52:48.125Z,3.33
2022-11-02T12:57:52.558Z,3.43
2022-11-02T13:03:03.297Z,3.80
2022-11-02T13:08:18.296Z,4.50
2022-11-02T13:13:45.368Z,4.43
2022-11-02T13:18:54.039Z,4.57
2022-11-02T13:23:58.607Z,4.17
2022-11-02T13:29:25.518Z,4.20
2022-11-02T13:34:35.865Z,4.53
2022-11-02T13:39:47.119Z,4.07
2022-11-02T13:50:48.655Z,4.47
2022-11-02T13:56:10.432Z,5.07
2022-11-02T14:01:18.172Z,4.97
2022-11-02T14:06:21.652Z,5.03
2022-11-02T14:11:27.293Z,4.80
2022-11-02T14:16:49.689Z,5.63
2022-11-02T14:21:52.487Z,5.37
2022-11-02T14:26:59.321Z,5.77
2022-11-02T14:32:05.411Z,5.03
2022-11-02T14:37:29.595Z,4.73
2022-11-02T14:42:53.829Z,5.10
2022-11-02T14:48:02.815Z,4.90
2022-11-02T14:53:17.606Z,5.63
2022-11-02T14:58:21.772Z,5.20
2022-11-02T15:03:24.522Z,5.70
2022-11-02T15:08:34.044Z,5.00
2022-11-02T15:13:47.571Z,5.40
2022-11-02T15:18:50.689Z,5.47
2022-11-02T15:24:17.344Z,7.00
2022-11-02T15:29:36.082Z,8.27
2022-11-02T15:34:44.379Z,6.73
2022-11-02T15:39:55.158Z,6.87
2022-11-02T15:45:42.614Z,7.53
2022-11-02T15:51:05.027Z,9.20
2022-11-02T15:56:40.625Z,9.20
2022-11-02T16:01:43.658Z,10.03
2022-11-02T16:06:47.015Z,10.57
2022-11-02T16:12:12.958Z,10.23
2022-11-02T16:17:27.153Z,10.47
2022-11-02T16:22:30.677Z,9.20
2022-11-02T16:27:37.721Z,10.33
2022-11-02T16:32:40.524Z,9.33
2022-11-02T16:37:44.161Z,8.43
2022-11-02T16:42:48.635Z,9.13
2022-11-02T16:47:56.408Z,7.33
2022-11-02T16:53:02.299Z,7.67
2022-11-02T16:58:07.251Z,6.40
2022-11-02T17:03:14.274Z,6.33
2022-11-02T17:08:30.561Z,5.63
2022-11-02T17:13:35.839Z,6.10
2022-11-02T17:18:39.188Z,6.00
2022-11-02T17:23:44.037Z,5.67
2022-11-02T17:28:48.247Z,6.63
2022-11-02T17:33:52.055Z,7.50
2022-11-02T17:38:55.814Z,7.50
2022-11-02T17:43:59.156Z,7.83
2022-11-02T17:49:02.469Z,7.53
2022-11-02T17:54:05.535Z,7.77
2022-11-02T17:59:08.550Z,9.13
2022-11-02T18:04:11.459Z,8.23
2022-11-02T18:09:19.281Z,8.63
2022-11-02T18:14:22.360Z,8.33
2022-11-02T18:19:25.260Z,8.73
2022-11-02T18:24:28.277Z,8.13
2022-11-02T18:29:31.208Z,8.67
2022-11-02T18:34:34.063Z,8.93
2022-11-02T18:39:36.833Z,10.80
2022-11-02T18:44:39.921Z,12.27
2022-11-02T18:49:42.926Z,13.80
2022-11-02T18:54:45.800Z,16.83
2022-11-02T18:59:48.772Z,20.00
2022-11-02T19:04:51.639Z,15.93
2022-11-02T19:09:56.474Z,13.60
2022-11-02T19:15:02.224Z,12.07
2022-11-02T19:20:05.596Z,11.50
2022-11-02T19:25:10.587Z,11.33
2022-11-02T19:30:13.705Z,12.13
2022-11-02T19:35:16.570Z,11.33
2022-11-02T19:40:19.358Z,12.53
2022-11-02T19:45:22.202Z,13.43
2022-11-02T19:50:25.024Z,12.13
2022-11-02T19:55:29.526Z,11.27
2022-11-02T20:00:32.327Z,11.20
2022-11-02T20:05:35.114Z,11.07
2022-11-02T20:10:37.909Z,10.67
2022-11-02T20:15:40.835Z,11.57
2022-11-02T20:20:43.701Z,11.57
2022-11-02T20:25:47.420Z,13.63
2022-11-02T20:30:50.269Z,13.10
2022-11-02T20:35:53.064Z,12.47
2022-11-02T20:41:02.432Z,12.20
2022-11-02T20:46:31.583Z,13.30
2022-11-02T20:51:30.274Z,11.87
2022-11-02T20:56:36.250Z,12.40
2022-11-02T21:01:48.224Z,14.20
2022-11-02T21:07:14.787Z,12.70
2022-11-02T21:12:39.097Z,13.33
2022-11-02T21:17:41.847Z,12.50
2022-11-02T21:22:44.637Z,11.13
2022-11-02T21:27:50.706Z,10.93
2022-11-02T21:32:54.312Z,12.37
2022-11-02T21:38:00.206Z,11.70
2022-11-02T21:43:06.762Z,11.80
2022-11-02T21:48:09.826Z,12.33
2022-11-02T21:53:13.494Z,12.30
2022-11-02T21:58:17.001Z,10.67
2022-11-02T22:03:19.804Z,12.07
2022-11-02T22:08:40.866Z,11.30
2022-11-02T22:13:44.446Z,11.20
2022-11-02T22:18:48.912Z,11.47
2022-11-02T22:23:52.798Z,12.00
2022-11-02T22:29:00.842Z,11.40
2022-11-02T22:34:06.430Z,10.87
2022-11-02T22:39:12.700Z,11.77
2022-11-02T22:44:17.396Z,12.23
2022-11-02T22:49:20.614Z,11.53
2022-11-02T22:54:23.388Z,11.90
2022-11-02T22:59:26.182Z,11.93
2022-11-02T23:04:28.993Z,12.23
2022-11-02T23:09:31.770Z,13.50
2022-11-02T23:14:34.538Z,12.93
2022-11-02T23:19:38.331Z,13.67
2022-11-02T23:25:08.290Z,13.23
2022-11-02T23:30:30.133Z,13.20
2022-11-02T23:35:51.263Z,14.23
2022-11-02T23:40:55.107Z,14.60
2022-11-02T23:45:58.572Z,13.00
2022-11-02T23:51:19.899Z,11.87
2022-11-02T23:56:41.133Z,13.67
